Time;durP1;ratioP1;P1;durP2;ratioP2;P2;SDS_P1;SDS_P2;PMS_P1;PMS_P2;Temp;Humidity;BMP_temperature;BMP_pressure;BME280_temperature;BME280_humidity;BME280_pressure;Samples;Min_cycle;Max_cycle;Signal;HPM_P1;HPM_P2
2022/06/01 00:02:33;;;;;;;9.80;7.40;;;;;;;14.33;68.30;98388.71;220298;1274;22530;-67
2022/06/01 00:07:39;;;;;;;10.80;8.30;;;;;;;14.37;68.20;98390.79;220136;1274;22714;-66
2022/06/01 00:12:50;;;;;;;9.90;7.50;;;;;;;14.43;67.92;98393.39;219698;1273;204271;-67
2022/06/01 00:18:13;;;;;;;11.10;8.10;;;;;;;14.47;67.77;98398.10;219719;1274;22535;-67
2022/06/01 00:23:19;;;;;;;15.60;10.20;;;;;;;14.48;67.95;98404.75;219471;1275;22544;-67
2022/06/01 00:28:25;;;;;;;13.50;10.50;;;;;;;14.41;68.14;98422.23;219913;1274;22557;-66
2022/06/01 00:33:30;;;;;;;17.70;10.90;;;;;;;14.28;68.44;98434.20;219842;1274;22704;-66
2022/06/01 00:38:37;;;;;;;12.10;9.60;;;;;;;14.18;68.89;98433.13;219897;1274;22573;-68
2022/06/01 00:43:44;;;;;;;12.30;9.60;;;;;;;14.13;69.01;98440.38;219805;1273;22561;-67
2022/06/01 00:49:02;;;;;;;10.70;7.80;;;;;;;14.09;69.21;98451.64;220096;1273;22579;-68
2022/06/01 00:54:06;;;;;;;12.50;7.70;;;;;;;14.03;69.56;98469.88;219594;1275;22544;-68
2022/06/01 00:59:17;;;;;;;6.80;6.00;;;;;;;13.97;70.27;98470.66;219523;1274;22688;-67
2022/06/01 01:04:22;;;;;;;5.80;5.20;;;;;;;13.87;71.04;98477.10;219750;1274;22551;-67
2022/06/01 01:09:35;;;;;;;7.60;5.80;;;;;;;13.77;71.98;98475.36;219737;1273;22546;-68
2022/06/01 01:14:43;;;;;;;6.80;5.30;;;;;;;13.65;72.41;98465.44;219784;1274;22599;-67
2022/06/01 01:19:53;;;;;;;6.70;4.90;;;;;;;13.56;73.27;98462.02;220062;1274;24387;-68
2022/06/01 01:25:57;;;;;;;;;;;;;;;;;;;;;
2022/06/01 01:31:17;;;;;;;8.40;5.20;;;;;;;13.37;74.27;98468.21;219737;1276;22563;-66
2022/06/01 01:37:00;;;;;;;7.20;5.20;;;;;;;13.32;74.86;98472.75;219846;1273;25250;-67
2022/06/01 01:42:16;;;;;;;5.80;4.90;;;;;;;13.29;75.10;98480.68;220465;1274;23849;-67
2022/06/01 01:47:36;;;;;;;4.70;4.20;;;;;;;13.24;75.40;98473.23;219817;1274;22711;-66
2022/06/01 01:52:44;;;;;;;6.70;4.70;;;;;;;13.21;75.69;98463.47;219780;1274;22569;-67
2022/06/01 01:58:09;;;;;;;6.20;4.80;;;;;;;13.20;75.73;98463.73;219880;1273;24226;-70
2022/06/01 02:03:26;;;;;;;5.60;4.40;;;;;;;13.18;76.25;98482.43;219939;1274;24199;-67
2022/06/01 02:08:48;;;;;;;5.80;4.10;;;;;;;13.16;76.60;98502.23;219908;1275;22553;-67
2022/06/01 02:13:58;;;;;;;6.00;4.10;;;;;;;13.16;77.22;98521.66;219649;1275;26361;-67
2022/06/01 02:19:30;;;;;;;5.10;4.40;;;;;;;13.14;77.77;98519.81;219799;1274;23665;-67
2022/06/01 02:24:47;;;;;;;6.10;4.70;;;;;;;13.10;78.05;98507.24;219736;1274;22729;-67
2022/06/01 02:30:22;;;;;;;5.90;4.50;;;;;;;13.01;78.60;98492.37;219881;1273;25763;-67
2022/06/01 02:35:58;;;;;;;5.20;4.60;;;;;;;12.93;79.02;98480.62;219959;1274;22764;-67
2022/06/01 02:47:37;;;;;;;5.20;3.90;;;;;;;12.87;79.76;98462.18;219872;1274;25337;-68
2022/06/01 02:52:53;;;;;;;4.90;4.40;;;;;;;12.83;80.25;98457.91;219648;1276;22559;-72
2022/06/01 02:58:19;;;;;;;6.30;4.30;;;;;;;12.82;80.54;98453.41;220714;1276;22532;-72
2022/06/01 03:03:40;;;;;;;4.80;3.80;;;;;;;12.81;80.78;98449.26;220870;1274;24493;-73
2022/06/01 03:09:35;;;;;;;3.90;2.60;;;;;;;12.81;81.19;98453.87;220702;1274;25248;-72
2022/06/01 03:14:50;;;;;;;5.00;2.90;;;;;;;12.83;81.39;98464.20;220885;1274;22556;-72
2022/06/01 03:20:00;;;;;;;3.30;2.90;;;;;;;12.83;81.62;98468.55;220477;1275;22584;-71
2022/06/01 03:25:12;;;;;;;4.60;3.00;;;;;;;12.82;81.97;98467.38;220550;1277;24176;-72
2022/06/01 03:30:56;;;;;;;4.30;3.30;;;;;;;12.81;82.02;98466.20;220978;1274;24225;-73
2022/06/01 03:36:10;;;;;;;4.30;3.50;;;;;;;12.80;82.32;98469.10;220861;1274;22555;-72
2022/06/01 03:41:13;;;;;;;3.80;3.50;;;;;;;12.76;82.52;98470.05;220871;1274;22559;-72
2022/06/01 03:46:19;;;;;;;3.50;2.40;;;;;;;12.72;82.70;98466.64;220738;1276;23068;-72
2022/06/01 03:51:42;;;;;;;3.30;2.90;;;;;;;12.69;83.19;98473.33;220986;1277;22603;-72
2022/06/01 03:57:21;;;;;;;3.20;2.80;;;;;;;12.66;83.43;98468.25;220945;1274;22587;-73
2022/06/01 04:03:08;;;;;;;4.00;3.60;;;;;;;12.64;83.81;98467.61;220846;1277;22571;-72
2022/06/01 04:09:15;;;;;;;;;;;;;;;;;;;;;
2022/06/01 04:14:44;;;;;;;3.90;3.60;;;;;;;12.68;84.62;98469.18;220797;1275;22554;-72
2022/06/01 04:20:46;;;;;;;3.80;3.50;;;;;;;12.74;84.86;98457.20;220681;1277;24104;-72
2022/06/01 04:26:26;;;;;;;;;;;;;;;;;;;;;
2022/06/01 04:32:37;;;;;;;3.10;2.90;;;;;;;12.85;84.86;98443.67;220509;1277;25245;-73
2022/06/01 04:38:12;;;;;;;4.10;3.20;;;;;;;12.90;84.84;98427.18;220362;1277;22584;-72
2022/06/01 04:43:31;;;;;;;3.40;3.10;;;;;;;12.97;84.85;98420.75;220542;1275;22680;-73
2022/06/01 04:48:50;;;;;;;3.10;2.80;;;;;;;13.12;85.08;98418.28;220568;1277;22525;-73
2022/06/01 04:54:06;;;;;;;3.10;2.80;;;;;;;13.34;85.29;98413.07;220664;1274;22633;-72
2022/06/01 04:59:17;;;;;;;3.20;3.00;;;;;;;13.58;85.17;98406.07;220578;1277;22612;-72
2022/06/01 05:04:34;;;;;;;5.20;4.70;;;;;;;13.81;85.06;98405.92;220772;1275;24606;-73
2022/06/01 05:10:13;;;;;;;7.00;6.20;;;;;;;14.01;84.69;98411.06;220621;1275;22621;-72
2022/06/01 05:15:55;;;;;;;6.90;6.20;;;;;;;14.21;84.45;98413.23;220551;1275;22623;-72
2022/06/01 05:21:15;;;;;;;6.80;4.80;;;;;;;14.41;84.41;98416.52;220889;1274;22608;-72
2022/06/01 05:26:20;;;;;;;4.30;3.80;;;;;;;14.55;83.76;98424.86;220614;1275;26424;-72
2022/06/01 05:31:33;;;;;;;3.50;3.20;;;;;;;14.54;83.18;98432.75;220569;1274;22551;-72
2022/06/01 05:37:33;;;;;;;3.20;2.60;;;;;;;14.67;83.40;98434.74;221144;1274;22560;-72
2022/06/01 05:43:14;;;;;;;4.40;4.00;;;;;;;14.82;83.26;98444.77;220822;1274;24893;-72
2022/06/01 05:48:39;;;;;;;5.70;4.10;;;;;;;14.87;82.95;98448.35;221029;1274;22769;-72
2022/06/01 05:53:59;;;;;;;5.10;4.60;;;;;;;14.96;83.26;98447.14;220996;1274;22540;-73
2022/06/01 06:00:36;;;;;;;5.50;4.60;;;;;;;15.15;83.34;98445.16;220970;1274;25237;-72
2022/06/01 06:06:33;;;;;;;6.20;3.80;;;;;;;15.40;83.42;98457.08;221004;1274;25305;-72
2022/06/01 06:12:12;;;;;;;4.00;2.90;;;;;;;15.58;82.60;98462.70;221098;1274;27166;-73
2022/06/01 06:18:11;;;;;;;4.30;3.90;;;;;;;15.59;82.08;98466.27;221018;1274;24925;-73
2022/06/01 06:24:16;;;;;;;5.00;4.10;;;;;;;15.37;81.85;98474.37;221407;1275;22578;-72
2022/06/01 06:30:51;;;;;;;;;;;;;;;;;;;;;
2022/06/01 06:37:10;;;;;;;4.20;3.80;;;;;;;15.08;83.72;98478.21;221163;1274;24227;-72
2022/06/01 06:43:55;;;;;;;4.40;4.00;;;;;;;15.29;84.01;98470.77;220728;1274;24137;-73
2022/06/01 06:49:38;;;;;;;4.30;3.90;;;;;;;15.41;83.50;98471.98;220654;1274;22778;-72
2022/06/01 06:55:07;;;;;;;4.60;3.90;;;;;;;15.50;83.48;98477.90;220964;1275;22544;-73
2022/06/01 07:00:10;;;;;;;6.30;4.80;;;;;;;15.65;83.24;98480.60;220914;1274;22553;-71
2022/06/01 07:10:44;;;;;;;5.20;4.70;;;;;;;16.30;83.09;98478.70;221175;1274;25252;-71
2022/06/01 07:15:56;;;;;;;;;;;;;;;;;;;;;
2022/06/01 07:20:59;;;;;;;6.00;4.90;;;;;;;16.78;81.29;98478.75;221101;1274;24405;-73
2022/06/01 07:26:22;;;;;;;5.10;3.80;;;;;;;16.86;80.28;98485.50;221252;1274;25327;-73
2022/06/01 07:31:25;;;;;;;3.40;3.00;;;;;;;16.87;79.64;98484.63;220767;1274;24318;-71
2022/06/01 07:36:35;;;;;;;4.10;2.70;;;;;;;16.98;79.42;98486.05;220895;1273;23059;-71
2022/06/01 07:47:27;;;;;;;3.10;2.60;;;;;;;17.19;77.60;98496.92;220803;1274;25219;-71
2022/06/01 07:52:49;;;;;;;3.40;2.80;;;;;;;17.19;77.40;98498.70;221199;1273;25244;-71
2022/06/01 07:57:52;;;;;;;3.90;2.50;;;;;;;17.33;77.55;98503.77;220937;1274;22591;-71
2022/06/01 08:02:54;;;;;;;2.10;1.80;;;;;;;17.62;76.26;98506.36;220998;1273;25416;-72
2022/06/01 08:07:58;;;;;;;2.80;2.00;;;;;;;17.88;75.33;98512.44;220833;1274;23037;-72
2022/06/01 08:13:07;;;;;;;2.20;2.00;;;;;;;18.22;75.85;98515.89;221179;1273;26220;-72
2022/06/01 08:18:12;;;;;;;2.70;2.30;;;;;;;18.52;75.40;98519.88;221898;1273;25469;-71
2022/06/01 08:23:37;;;;;;;1.70;1.60;;;;;;;18.64;73.19;98522.35;221025;1275;22563;-71
2022/06/01 08:29:03;;;;;;;2.20;1.90;;;;;;;18.72;72.22;98525.80;221133;1274;22548;-71
2022/06/01 08:34:16;;;;;;;1.40;1.30;;;;;;;18.88;71.62;98530.97;220938;1274;22604;-69
2022/06/01 08:39:41;;;;;;;1.60;1.30;;;;;;;19.06;70.73;98528.55;220895;1274;23281;-70
2022/06/01 08:44:49;;;;;;;2.60;1.30;;;;;;;19.21;69.55;98527.89;221157;1273;22544;-70
2022/06/01 08:50:04;;;;;;;1.30;1.20;;;;;;;19.41;69.87;98521.81;221051;1274;22538;-71
2022/06/01 08:55:18;;;;;;;1.60;1.50;;;;;;;19.68;68.53;98528.33;220833;1274;22577;-70
2022/06/01 09:01:03;;;;;;;1.80;1.20;;;;;;;19.90;67.70;98534.02;221017;1274;22574;-70
2022/06/01 09:06:45;;;;;;;1.80;1.20;;;;;;;19.98;66.32;98535.19;221154;1273;24251;-70
2022/06/01 09:11:50;;;;;;;3.70;2.80;;;;;;;20.36;65.98;98538.81;221018;1274;22543;-70
2022/06/01 09:17:02;;;;;;;2.80;1.40;;;;;;;20.78;63.98;98533.85;218969;1275;22571;-71
2022/06/01 09:28:03;;;;;;;;;;;;;;;;;;;;;
2022/06/01 09:33:30;;;;;;;1.20;1.10;;;;;;;21.61;58.78;98533.86;221025;1274;22560;-70
2022/06/01 09:38:58;;;;;;;2.40;1.30;;;;;;;21.77;58.68;98536.86;221124;1273;22730;-70
2022/06/01 09:44:32;;;;;;;1.30;1.20;;;;;;;22.17;58.32;98550.46;221201;1274;25308;-70
2022/06/01 09:49:42;;;;;;;1.40;1.20;;;;;;;22.53;56.18;98553.70;220969;1274;22551;-70
2022/06/01 09:55:08;;;;;;;2.40;2.20;;;;;;;22.76;56.65;98554.63;220980;1272;22573;-70
2022/06/01 10:06:14;;;;;;;2.70;2.50;;;;;;;22.55;51.41;98566.05;220979;1274;25368;-71
2022/06/01 10:11:45;;;;;;;2.20;1.80;;;;;;;22.21;53.13;98568.04;221207;1274;23900;-71
2022/06/01 10:17:28;;;;;;;4.40;1.60;;;;;;;21.95;54.23;98566.55;220845;1274;22959;-71
2022/06/01 10:23:07;;;;;;;3.20;2.90;;;;;;;21.40;54.89;98563.19;221092;1274;22548;-71
2022/06/01 10:28:39;;;;;;;21.80;18.70;;;;;;;20.99;55.50;98550.69;221149;1274;22772;-71
2022/06/01 10:33:49;;;;;;;1.70;1.60;;;;;;;20.81;55.89;98554.67;220788;1274;22547;-71
2022/06/01 10:39:02;;;;;;;4.70;4.20;;;;;;;20.48;55.88;98566.16;221145;1274;22543;-71
2022/06/01 10:44:45;;;;;;;2.00;1.50;;;;;;;20.09;55.70;98579.39;221032;1274;22534;-71
2022/06/01 10:50:12;;;;;;;1.00;0.80;;;;;;;19.46;55.52;98598.54;221002;1274;24215;-71
2022/06/01 10:55:34;;;;;;;1.40;1.10;;;;;;;18.61;55.11;98604.58;221014;1274;23059;-71
2022/06/01 11:01:28;;;;;;;2.10;1.10;;;;;;;18.01;56.21;98598.33;221082;1273;22757;-71
2022/06/01 11:07:06;;;;;;;1.30;1.20;;;;;;;17.88;59.04;98586.70;221256;1274;24014;-71
2022/06/01 11:12:56;;;;;;;2.90;1.30;;;;;;;17.89;60.49;98593.38;221071;1274;22540;-71
2022/06/01 11:18:30;;;;;;;;;;;;;;;18.08;60.95;98582.47;221027;1273;22688;-70
2022/06/01 11:23:40;;;;;;;2.50;2.10;;;;;;;18.42;60.47;98571.44;219432;1274;22549;-71
2022/06/01 11:29:01;;;;;;;2.90;1.50;;;;;;;18.81;60.51;98568.30;220871;1274;24221;-70
2022/06/01 11:34:12;;;;;;;1.40;1.30;;;;;;;19.11;60.07;98561.15;220729;1274;22554;-72
2022/06/01 11:39:35;;;;;;;1.60;1.50;;;;;;;19.54;60.33;98557.34;221118;1273;22588;-72
2022/06/01 11:44:43;;;;;;;1.40;1.30;;;;;;;20.20;59.43;98558.30;220987;1274;24329;-71
2022/06/01 11:50:24;;;;;;;1.30;1.20;;;;;;;20.67;58.16;98554.09;220749;1274;24299;-71
2022/06/01 11:55:44;;;;;;;1.40;1.30;;;;;;;21.00;57.40;98551.58;220889;1273;22560;-71
2022/06/01 12:01:30;;;;;;;1.30;1.20;;;;;;;21.01;55.99;98552.61;220867;1274;24804;-71
2022/06/01 12:06:46;;;;;;;6.00;2.30;;;;;;;20.89;55.26;98556.45;220945;1274;22535;-72
2022/06/01 12:11:56;;;;;;;1.30;1.20;;;;;;;20.84;55.90;98551.77;219946;1274;1374067;-73
2022/06/01 12:17:26;;;;;;;1.40;1.30;;;;;;;20.87;55.29;98548.70;221294;1273;23164;-73
2022/06/01 12:28:31;;;;;;;1.90;1.70;;;;;;;20.85;54.03;98541.59;220795;1274;22602;-71
2022/06/01 12:33:34;;;;;;;1.30;1.10;;;;;;;21.02;52.59;98531.52;221145;1274;22621;-71
2022/06/01 12:39:33;;;;;;;1.90;1.20;;;;;;;21.35;51.75;98535.08;221322;1273;22637;-71
2022/06/01 12:44:49;;;;;;;1.40;1.30;;;;;;;21.74;50.30;98539.40;221270;1273;25520;-71
2022/06/01 12:50:19;;;;;;;1.90;1.40;;;;;;;22.06;48.94;98531.16;221452;1273;25434;-70
2022/06/01 12:56:13;;;;;;;1.10;1.00;;;;;;;22.33;47.88;98526.73;221039;1273;22566;-71
2022/06/01 13:01:20;;;;;;;1.60;1.40;;;;;;;22.60;47.06;98523.04;221024;1273;24307;-73
2022/06/01 13:06:39;;;;;;;1.40;1.40;;;;;;;22.65;46.35;98525.27;221220;1273;24215;-70
2022/06/01 13:11:41;;;;;;;1.70;1.60;;;;;;;22.87;45.27;98515.41;221121;1273;24211;-71
2022/06/01 13:16:47;;;;;;;1.40;1.30;;;;;;;22.93;43.96;98518.80;221176;1274;24749;-72
2022/06/01 13:21:55;;;;;;;1.60;1.50;;;;;;;22.84;43.63;98520.29;221187;1274;23418;-71
2022/06/01 13:27:01;;;;;;;2.20;1.60;;;;;;;22.73;43.68;98524.57;221147;1273;24234;-71
2022/06/01 13:32:10;;;;;;;2.00;1.90;;;;;;;22.81;43.64;98518.95;220867;1274;24298;-72
2022/06/01 13:37:15;;;;;;;;;;;;;;;22.84;44.04;98517.26;221111;1274;25332;-71
2022/06/01 13:42:34;;;;;;;3.30;1.70;;;;;;;22.81;44.44;98517.23;221154;1273;24264;-70
2022/06/01 13:47:48;;;;;;;2.40;2.10;;;;;;;22.84;44.46;98517.80;219365;1274;24235;-71
2022/06/01 13:52:53;;;;;;;1.60;1.50;;;;;;;22.95;44.21;98516.02;221083;1274;22553;-70
2022/06/01 13:58:00;;;;;;;3.80;3.40;;;;;;;23.05;44.68;98512.75;220926;1274;25283;-71
2022/06/01 14:03:17;;;;;;;3.10;2.90;;;;;;;23.09;43.26;98503.27;221241;1274;24284;-71
2022/06/01 14:08:28;;;;;;;3.40;2.50;;;;;;;23.30;43.05;98501.64;221329;1274;22631;-68
2022/06/01 14:13:45;;;;;;;1.50;1.40;;;;;;;23.36;42.05;98505.96;219746;1274;24407;-68
2022/06/01 14:18:59;;;;;;;1.80;1.70;;;;;;;23.11;41.74;98507.49;219499;1274;22558;-69
2022/06/01 14:24:08;;;;;;;2.40;2.20;;;;;;;23.10;42.13;98513.42;219984;1274;24544;-69
2022/06/01 14:29:11;;;;;;;4.40;3.90;;;;;;;23.39;41.99;98509.20;219584;1273;25323;-68
2022/06/01 14:34:18;;;;;;;1.60;1.50;;;;;;;23.79;40.96;98510.19;219635;1274;22540;-69
2022/06/01 14:39:21;;;;;;;1.90;1.80;;;;;;;23.94;39.77;98509.90;219920;1274;26497;-69
2022/06/01 14:44:30;;;;;;;1.90;1.30;;;;;;;23.91;38.94;98520.50;219877;1274;24222;-70
2022/06/01 14:49:32;;;;;;;1.70;1.60;;;;;;;23.72;39.57;98523.75;220133;1274;25784;-69
2022/06/01 14:54:38;;;;;;;4.00;2.20;;;;;;;23.54;39.36;98520.44;219836;1273;22689;-69
2022/06/01 14:59:43;;;;;;;1.80;1.60;;;;;;;23.36;39.87;98516.52;219921;1273;26570;-68
2022/06/01 15:04:51;;;;;;;2.50;2.30;;;;;;;23.14;38.75;98519.00;220462;1273;22609;-70
2022/06/01 15:09:53;;;;;;;1.70;1.60;;;;;;;22.90;39.23;98529.64;220054;1273;24220;-69
2022/06/01 15:14:58;;;;;;;1.90;1.80;;;;;;;22.81;40.10;98522.46;219792;1273;22584;-68
2022/06/01 15:20:07;;;;;;;2.30;1.80;;;;;;;22.80;40.30;98523.77;219311;1275;24321;-70
2022/06/01 15:25:10;;;;;;;2.10;1.60;;;;;;;22.94;40.21;98518.90;219423;1275;24794;-69
2022/06/01 15:40:59;;;;;;;1.60;1.50;;;;;;;23.76;40.28;98507.21;220005;1274;22585;-70
2022/06/01 15:46:01;;;;;;;1.60;1.50;;;;;;;23.62;40.19;98505.35;219669;1274;24743;-69
2022/06/01 15:51:06;;;;;;;2.80;1.60;;;;;;;23.31;39.81;98512.41;219604;1273;22554;-71
2022/06/01 15:56:10;;;;;;;3.00;1.90;;;;;;;23.26;41.03;98509.89;219562;1274;26492;-69
2022/06/01 16:01:14;;;;;;;2.00;1.60;;;;;;;23.25;41.03;98509.02;219961;1274;22538;-69
2022/06/01 16:06:20;;;;;;;3.20;1.90;;;;;;;23.04;41.01;98512.66;220087;1274;22550;-68
2022/06/01 16:11:26;;;;;;;1.80;1.70;;;;;;;22.91;42.06;98513.64;219784;1273;22561;-70
2022/06/01 16:16:31;;;;;;;2.20;1.90;;;;;;;23.08;42.43;98506.05;220021;1274;22797;-69
2022/06/01 16:21:49;;;;;;;2.10;1.80;;;;;;;23.10;42.81;98517.02;219946;1274;24347;-70
2022/06/01 16:26:54;;;;;;;2.30;1.80;;;;;;;22.80;42.72;98520.34;220179;1273;22574;-69
2022/06/01 16:32:21;;;;;;;1.90;1.50;;;;;;;22.59;43.64;98525.67;219789;1274;22627;-70
2022/06/01 16:38:01;;;;;;;1.70;1.60;;;;;;;22.58;44.22;98528.25;219547;1274;22536;-69
2022/06/01 16:43:05;;;;;;;2.90;1.90;;;;;;;22.63;44.50;98532.59;220118;1274;22981;-69
2022/06/01 16:48:08;;;;;;;2.30;1.80;;;;;;;22.58;44.41;98523.96;220987;1273;22617;-68
2022/06/01 16:53:14;;;;;;;2.20;2.10;;;;;;;22.52;44.45;98522.80;219389;1274;22631;-67
2022/06/01 16:58:36;;;;;;;1.90;1.70;;;;;;;22.44;44.56;98520.23;219719;1274;24275;-69
2022/06/01 17:04:07;;;;;;;2.20;1.80;;;;;;;22.50;44.85;98519.66;220706;1273;25587;-70
2022/06/01 17:09:16;;;;;;;2.00;1.90;;;;;;;22.48;44.97;98518.63;220024;1273;22606;-72
2022/06/01 17:14:42;;;;;;;2.50;2.30;;;;;;;23.30;44.42;98516.29;220027;1273;22644;-69
2022/06/01 17:20:14;;;;;;;2.70;2.40;;;;;;;24.63;43.18;98511.89;220028;1273;22544;-69
2022/06/01 17:25:21;;;;;;;;;;;;;;;25.60;41.02;98516.19;219795;1274;22674;-68
2022/06/01 17:30:30;;;;;;;4.10;2.20;;;;;;;26.23;40.26;98520.66;219264;1276;22983;-69
2022/06/01 17:35:57;;;;;;;3.10;2.60;;;;;;;26.46;39.14;98525.19;219357;1275;22566;-68
2022/06/01 17:41:02;;;;;;;4.10;2.20;;;;;;;25.54;39.10;98526.35;219533;1274;24062;-69
2022/06/01 17:46:09;;;;;;;4.30;2.60;;;;;;;24.41;40.13;98524.27;219505;1273;22632;-70
2022/06/01 17:51:14;;;;;;;2.90;2.30;;;;;;;23.34;41.26;98519.37;219345;1274;22607;-68
2022/06/01 17:56:28;;;;;;;3.90;3.00;;;;;;;22.52;42.67;98514.05;219981;1274;24215;-70
2022/06/01 18:01:40;;;;;;;3.00;2.70;;;;;;;21.86;43.71;98508.48;220302;1274;22563;-69
2022/06/01 18:06:44;;;;;;;2.30;2.10;;;;;;;21.34;44.69;98507.28;219876;1273;22485;-69
2022/06/01 18:11:46;;;;;;;3.10;2.20;;;;;;;20.93;45.49;98498.23;219497;1274;25469;-68
2022/06/01 18:16:51;;;;;;;3.30;2.10;;;;;;;20.61;46.25;98503.52;219361;1274;24704;-69
2022/06/01 18:21:56;;;;;;;2.40;1.90;;;;;;;20.38;46.61;98505.98;219697;1274;23289;-70
2022/06/01 18:27:06;;;;;;;3.90;2.70;;;;;;;20.16;46.94;98501.30;220096;1273;24622;-68
2022/06/01 18:32:10;;;;;;;3.80;2.30;;;;;;;19.97;47.36;98503.80;219507;1275;22632;-69
2022/06/01 18:37:26;;;;;;;4.10;3.40;;;;;;;19.78;47.82;98501.20;219554;1275;22535;-70
2022/06/01 18:42:28;;;;;;;3.50;2.80;;;;;;;19.58;48.03;98501.77;219351;1277;24377;-68
2022/06/01 18:47:31;;;;;;;3.70;2.30;;;;;;;19.37;48.56;98510.40;219640;1273;22695;-69
2022/06/01 18:52:34;;;;;;;4.10;2.10;;;;;;;19.14;49.07;98510.20;219603;1273;24225;-69
2022/06/01 18:57:38;;;;;;;5.80;4.00;;;;;;;18.91;49.66;98515.36;220021;1274;22637;-69
2022/06/01 19:02:41;;;;;;;4.10;2.90;;;;;;;18.66;50.43;98520.77;219847;1274;22574;-69
2022/06/01 19:07:44;;;;;;;3.20;2.50;;;;;;;18.39;50.88;98517.05;219626;1277;25179;-69
2022/06/01 19:12:47;;;;;;;3.90;2.90;;;;;;;18.13;51.94;98520.13;219599;1277;22557;-69
2022/06/01 19:17:50;;;;;;;3.20;2.90;;;;;;;17.83;52.85;98531.95;219682;1273;22548;-69
2022/06/01 19:22:52;;;;;;;3.70;3.00;;;;;;;17.53;53.67;98529.84;220186;1273;22544;-71
2022/06/01 19:27:55;;;;;;;3.90;3.50;;;;;;;17.25;54.54;98535.63;220625;1274;25371;-68
2022/06/01 19:32:57;;;;;;;4.50;3.50;;;;;;;16.99;55.28;98534.39;219943;1274;24385;-68
2022/06/01 19:48:42;;;;;;;6.50;5.20;;;;;;;16.31;57.07;98523.83;219759;1273;22538;-69
2022/06/01 19:53:44;;;;;;;6.20;5.00;;;;;;;16.13;57.72;98523.65;219814;1277;23075;-68
2022/06/01 19:58:47;;;;;;;6.90;5.30;;;;;;;15.98;58.22;98520.10;219559;1274;24229;-69
2022/06/01 20:03:49;;;;;;;7.50;4.70;;;;;;;15.84;58.40;98523.54;219705;1274;25479;-69
2022/06/01 20:08:53;;;;;;;4.90;4.40;;;;;;;15.72;58.63;98525.21;219756;1274;25380;-69
2022/06/01 20:14:05;;;;;;;6.60;4.60;;;;;;;15.62;59.00;98522.29;219606;1274;24260;-68
2022/06/01 20:19:18;;;;;;;5.90;4.60;;;;;;;15.53;59.35;98525.12;219572;1274;26949;-69
2022/06/01 20:24:21;;;;;;;7.00;5.20;;;;;;;15.43;59.52;98523.73;219635;1274;25315;-68
2022/06/01 20:29:35;;;;;;;6.50;4.70;;;;;;;15.35;60.41;98531.37;219967;1274;25927;-69
2022/06/01 20:34:38;;;;;;;5.60;4.80;;;;;;;15.29;61.02;98533.12;219648;1273;23825;-69
2022/06/01 20:39:42;;;;;;;5.70;4.50;;;;;;;15.21;60.84;98524.08;219510;1276;24213;-69
2022/06/01 20:44:44;;;;;;;4.70;3.70;;;;;;;15.17;60.85;98526.05;219273;1276;25343;-69
2022/06/01 20:49:48;;;;;;;4.20;3.60;;;;;;;15.14;60.96;98526.39;219675;1273;22711;-69
2022/06/01 20:54:51;;;;;;;4.20;3.80;;;;;;;15.11;61.18;98522.50;219850;1274;22569;-68
2022/06/01 20:59:53;;;;;;;4.50;4.10;;;;;;;15.11;61.60;98519.94;220009;1274;22816;-69
2022/06/01 21:05:07;;;;;;;5.30;3.90;;;;;;;15.09;61.74;98526.31;219905;1274;22689;-68
2022/06/01 21:10:12;;;;;;;5.00;4.00;;;;;;;15.08;62.07;98536.23;219929;1274;22558;-69
2022/06/01 21:15:15;;;;;;;5.10;4.00;;;;;;;15.06;62.17;98544.41;219717;1274;22554;-68
2022/06/01 21:20:18;;;;;;;4.70;3.30;;;;;;;15.08;62.28;98550.17;219444;1274;22556;-69
2022/06/01 21:25:20;;;;;;;4.20;3.40;;;;;;;15.14;62.43;98561.21;219653;1277;22641;-68
2022/06/01 21:30:23;;;;;;;5.10;2.90;;;;;;;15.21;62.54;98565.15;219617;1275;22556;-68
2022/06/01 21:35:29;;;;;;;4.40;3.40;;;;;;;15.29;62.60;98562.13;219399;1274;22537;-68
2022/06/01 21:40:32;;;;;;;4.10;3.50;;;;;;;15.36;62.61;98569.44;219285;1275;25477;-68
2022/06/01 21:45:41;;;;;;;4.60;3.50;;;;;;;15.43;62.56;98563.30;219294;1276;22664;-68
2022/06/01 21:51:04;;;;;;;4.50;3.40;;;;;;;15.49;62.63;98562.23;219545;1274;22711;-69
2022/06/01 21:56:19;;;;;;;3.60;3.20;;;;;;;15.53;62.82;98569.25;219436;1273;22659;-71
2022/06/01 22:01:28;;;;;;;5.90;3.70;;;;;;;15.58;62.72;98575.92;219223;1274;24305;-69
2022/06/01 22:06:31;;;;;;;4.10;3.70;;;;;;;15.66;62.83;98569.19;219646;1275;22666;-68
2022/06/01 22:16:58;;;;;;;5.50;4.40;;;;;;;15.78;62.68;98564.30;220038;1274;25493;-67
2022/06/01 22:22:08;;;;;;;4.90;3.80;;;;;;;15.84;62.85;98567.35;219868;1274;22576;-67
2022/06/01 22:27:12;;;;;;;6.10;4.20;;;;;;;15.87;62.95;98564.63;219746;1275;24264;-68
2022/06/01 22:32:29;;;;;;;6.90;4.30;;;;;;;15.90;62.99;98560.13;219713;1274;22560;-68
2022/06/01 22:37:53;;;;;;;7.50;4.80;;;;;;;15.98;63.17;98566.80;219698;1277;23628;-68
2022/06/01 22:48:30;;;;;;;7.70;5.50;;;;;;;16.12;62.86;98564.61;219517;1275;25392;-68
2022/06/01 22:53:42;;;;;;;5.00;4.40;;;;;;;16.17;62.47;98553.15;220120;1274;22599;-67
2022/06/01 22:58:45;;;;;;;6.20;4.30;;;;;;;16.37;62.16;98548.43;220150;1274;22573;-67
2022/06/01 23:03:53;;;;;;;5.00;4.30;;;;;;;16.45;62.03;98549.88;219679;1275;25537;-68
2022/06/01 23:08:59;;;;;;;6.60;4.70;;;;;;;16.50;62.90;98566.17;219305;1275;24363;-68
2022/06/01 23:14:17;;;;;;;5.80;4.00;;;;;;;16.50;62.77;98570.23;219603;1274;22563;-68
2022/06/01 23:19:32;;;;;;;6.20;4.50;;;;;;;16.53;62.37;98578.59;220252;1274;22548;-68
2022/06/01 23:24:41;;;;;;;5.70;3.90;;;;;;;16.57;61.95;98587.69;219645;1274;22571;-67
2022/06/01 23:29:46;;;;;;;2.70;2.20;;;;;;;16.57;61.90;98585.36;218997;1277;24936;-68
2022/06/01 23:35:10;;;;;;;3.40;1.60;;;;;;;16.60;61.87;98590.34;219508;1277;22711;-67
2022/06/01 23:40:53;;;;;;;1.40;1.30;;;;;;;16.65;61.94;98603.24;219550;1274;25539;-68
2022/06/01 23:46:25;;;;;;;2.40;1.60;;;;;;;16.63;62.58;98622.88;219471;1277;22593;-68
2022/06/01 23:51:42;;;;;;;1.70;1.50;;;;;;;16.55;63.43;98645.80;219615;1275;22561;-67
2022/06/01 23:57:13;;;;;;;1.90;1.80;;;;;;;16.42;64.98;98664.02;220243;1274;25411;-68
